Time;durP1;ratioP1;P1;durP2;ratioP2;P2;SDS_P1;SDS_P2;PMS_P1;PMS_P2;Temp;Humidity;BMP_temperature;BMP_pressure;BME280_temperature;BME280_humidity;BME280_pressure;Samples;Min_cycle;Max_cycle;Signal;HPM_P1;HPM_P2
2023/12/25 00:02:11;;;;;;;0.90;0.50;;;14.50;52.70;;;;;;5032003;28;20179;-47
2023/12/25 00:04:37;;;;;;;0.90;0.40;;;14.60;51.40;;;;;;4992102;28;1163500;-49
2023/12/25 00:07:02;;;;;;;0.90;0.30;;;14.60;51.10;;;;;;5032844;28;20292;-50
2023/12/25 00:09:28;;;;;;;0.90;0.40;;;14.60;50.90;;;;;;5032808;28;20196;-48
2023/12/25 00:11:54;;;;;;;0.90;0.45;;;14.50;51.10;;;;;;5033187;28;20416;-46
2023/12/25 00:14:20;;;;;;;0.90;0.40;;;14.50;50.90;;;;;;5032201;28;20636;-53
2023/12/25 00:16:46;;;;;;;1.00;0.52;;;14.40;51.10;;;;;;5032803;28;20212;-48
2023/12/25 00:19:12;;;;;;;0.93;0.50;;;14.40;51.40;;;;;;5032586;28;20651;-46
2023/12/25 00:21:38;;;;;;;1.00;0.77;;;14.50;51.00;;;;;;5032820;28;20279;-49
2023/12/25 00:24:07;;;;;;;0.90;0.40;;;14.40;50.90;;;;;;5032455;28;20206;-47
2023/12/25 00:26:32;;;;;;;0.90;0.40;;;14.40;51.00;;;;;;5032771;28;20189;-45
2023/12/25 00:28:58;;;;;;;1.10;0.70;;;14.20;51.40;;;;;;5032464;28;20205;-49
2023/12/25 00:31:24;;;;;;;0.97;0.53;;;14.20;51.70;;;;;;5032426;28;20412;-47
2023/12/25 00:33:50;;;;;;;0.90;0.30;;;14.30;51.80;;;;;;5032468;28;20240;-47
2023/12/25 00:36:15;;;;;;;0.90;0.30;;;14.20;52.00;;;;;;5032407;28;20232;-49
2023/12/25 00:38:41;;;;;;;0.90;0.37;;;14.30;51.70;;;;;;5032335;28;20181;-51
2023/12/25 00:41:07;;;;;;;0.90;0.30;;;14.30;51.50;;;;;;5032308;28;20575;-47
2023/12/25 00:43:33;;;;;;;0.90;0.30;;;14.30;51.50;;;;;;5032493;28;20190;-50
2023/12/25 00:46:03;;;;;;;0.90;0.33;;;14.20;51.90;;;;;;5032297;28;20417;-51
2023/12/25 00:48:29;;;;;;;0.90;0.50;;;14.10;52.10;;;;;;5032012;28;20194;-46
2023/12/25 00:50:54;;;;;;;0.90;0.30;;;14.10;52.20;;;;;;5032252;28;20178;-48
2023/12/25 00:53:20;;;;;;;0.98;0.47;;;14.10;52.20;;;;;;5032151;28;20186;-50
2023/12/25 00:55:46;;;;;;;0.90;0.40;;;14.20;51.80;;;;;;5032134;28;20179;-48
2023/12/25 00:58:12;;;;;;;0.90;0.40;;;14.30;51.70;;;;;;5032065;28;20667;-47
2023/12/25 01:00:38;;;;;;;1.00;0.60;;;14.30;51.50;;;;;;5032121;28;20272;-51
2023/12/25 01:03:04;;;;;;;0.90;0.40;;;14.30;51.30;;;;;;5031994;28;20186;-47
2023/12/25 01:05:29;;;;;;;0.90;0.30;;;14.40;50.90;;;;;;5031891;28;20209;-47
2023/12/25 01:07:55;;;;;;;0.90;0.50;;;14.40;50.60;;;;;;5031659;28;20488;-51
2023/12/25 01:10:21;;;;;;;0.90;0.53;;;14.50;50.40;;;;;;5032037;28;20622;-47
2023/12/25 01:12:46;;;;;;;1.20;0.93;;;14.50;50.20;;;;;;5032113;28;20180;-47
2023/12/25 01:15:13;;;;;;;0.90;0.40;;;14.60;49.80;;;;;;5031828;28;20206;-49
2023/12/25 01:17:38;;;;;;;0.90;0.50;;;14.60;49.70;;;;;;5031793;28;20205;-47
2023/12/25 01:20:05;;;;;;;0.90;0.33;;;14.70;49.40;;;;;;5031665;28;20643;-49
2023/12/25 01:22:30;;;;;;;0.90;0.30;;;14.70;49.60;;;;;;5032078;28;20602;-47
2023/12/25 01:24:56;;;;;;;0.90;0.47;;;14.70;49.10;;;;;;5030988;28;20721;-49
2023/12/25 01:27:22;;;;;;;1.00;0.50;;;14.80;48.90;;;;;;5031586;28;20186;-46
2023/12/25 01:29:48;;;;;;;0.80;0.30;;;14.80;49.00;;;;;;5031633;28;20202;-47
2023/12/25 01:32:13;;;;;;;0.90;0.47;;;14.70;49.10;;;;;;5031633;28;20181;-49
2023/12/25 01:34:39;;;;;;;0.90;0.43;;;14.80;49.00;;;;;;5031620;28;20190;-52
2023/12/25 01:37:05;;;;;;;0.90;0.40;;;14.80;49.10;;;;;;5031546;28;20623;-47
2023/12/25 01:39:30;;;;;;;1.07;0.80;;;14.80;48.80;;;;;;5031511;28;20178;-52
2023/12/25 01:41:56;;;;;;;0.90;0.40;;;14.70;48.90;;;;;;5031681;28;20178;-51
2023/12/25 01:44:22;;;;;;;1.63;0.60;;;14.70;49.00;;;;;;5031302;28;20208;-48
2023/12/25 01:46:47;;;;;;;0.90;0.40;;;14.70;48.90;;;;;;5031584;28;20210;-51
2023/12/25 01:49:13;;;;;;;1.10;0.80;;;14.80;48.50;;;;;;5031314;28;20196;-46
2023/12/25 01:51:39;;;;;;;1.10;0.73;;;14.90;48.20;;;;;;5031489;28;20174;-51
2023/12/25 01:54:07;;;;;;;0.97;0.47;;;14.80;48.30;;;;;;5031601;28;20441;-51
2023/12/25 01:56:33;;;;;;;0.90;0.40;;;14.80;48.20;;;;;;5031485;28;20715;-49
2023/12/25 01:58:59;;;;;;;1.07;0.50;;;14.80;48.30;;;;;;5031265;28;20265;-52
2023/12/25 02:01:24;;;;;;;1.10;0.67;;;14.80;48.10;;;;;;5031556;28;20213;-46
2023/12/25 02:03:50;;;;;;;1.00;0.50;;;14.70;48.20;;;;;;5031229;28;20552;-45
2023/12/25 02:06:16;;;;;;;0.90;0.50;;;14.70;48.20;;;;;;5031284;28;20190;-49
2023/12/25 02:08:42;;;;;;;0.90;0.40;;;14.80;48.00;;;;;;5031112;28;20660;-49
2023/12/25 02:11:08;;;;;;;1.15;0.63;;;14.60;48.40;;;;;;5030415;28;20190;-49
2023/12/25 02:13:34;;;;;;;1.20;0.80;;;14.50;48.80;;;;;;5024249;28;20173;-50
2023/12/25 02:16:01;;;;;;;2.13;0.95;;;14.60;48.80;;;;;;5031442;28;20416;-45
2023/12/25 02:18:27;;;;;;;1.00;0.60;;;14.70;49.30;;;;;;5031232;28;20182;-52
2023/12/25 02:20:53;;;;;;;0.90;0.45;;;14.80;48.10;;;;;;5031312;28;20300;-45
2023/12/25 02:23:21;;;;;;;0.90;0.38;;;14.90;48.10;;;;;;5031244;28;20190;-51
2023/12/25 02:25:55;;;;;;;0.90;0.47;;;15.00;47.80;;;;;;5031221;28;20264;-48
2023/12/25 02:28:22;;;;;;;1.00;0.60;;;15.00;47.70;;;;;;5030999;28;20201;-46
2023/12/25 02:30:48;;;;;;;1.00;0.57;;;14.90;47.90;;;;;;5031244;28;20281;-50
2023/12/25 02:33:14;;;;;;;0.98;0.50;;;15.00;47.70;;;;;;5031223;28;20182;-46
2023/12/25 02:35:40;;;;;;;1.10;0.70;;;14.90;48.30;;;;;;5031487;28;20201;-50
2023/12/25 02:38:06;;;;;;;1.00;0.70;;;14.80;48.30;;;;;;5034531;28;20547;-48
2023/12/25 02:40:31;;;;;;;0.90;0.40;;;14.80;48.10;;;;;;5034792;28;20409;-46
2023/12/25 02:42:57;;;;;;;1.00;0.50;;;14.80;48.00;;;;;;5034652;28;20174;-52
2023/12/25 02:45:23;;;;;;;0.90;0.40;;;14.70;48.10;;;;;;5034462;28;20202;-53
2023/12/25 02:47:48;;;;;;;0.90;0.40;;;14.80;47.80;;;;;;5034285;28;20569;-48
2023/12/25 02:50:14;;;;;;;0.90;0.40;;;14.80;47.90;;;;;;5034710;28;20635;-49
2023/12/25 02:52:40;;;;;;;1.10;0.80;;;14.60;48.60;;;;;;5034550;28;20170;-49
2023/12/25 02:55:06;;;;;;;0.90;0.40;;;14.60;48.00;;;;;;5034356;28;20229;-46
2023/12/25 02:57:32;;;;;;;1.00;0.60;;;14.70;47.40;;;;;;5034538;28;20413;-51
2023/12/25 02:59:57;;;;;;;0.90;0.30;;;14.70;47.80;;;;;;5035362;28;20685;-49
2023/12/25 03:02:23;;;;;;;1.10;0.60;;;14.60;47.70;;;;;;5035097;28;20293;-48
2023/12/25 03:04:49;;;;;;;0.90;0.47;;;14.50;48.20;;;;;;5035075;28;20671;-50
2023/12/25 03:07:15;;;;;;;1.00;0.50;;;14.50;48.40;;;;;;5034664;28;20175;-47
2023/12/25 03:09:40;;;;;;;3.27;0.63;;;14.50;48.30;;;;;;5033894;28;20764;-48
2023/12/25 03:12:06;;;;;;;0.80;0.30;;;14.50;48.30;;;;;;5034002;28;20257;-47
2023/12/25 03:14:32;;;;;;;1.00;0.63;;;14.60;48.00;;;;;;5034119;28;20339;-47
2023/12/25 03:16:58;;;;;;;0.90;0.47;;;14.60;47.90;;;;;;5033967;28;20256;-51
2023/12/25 03:19:24;;;;;;;0.90;0.50;;;14.60;47.90;;;;;;5034000;28;20174;-48
2023/12/25 03:21:49;;;;;;;0.90;0.40;;;14.50;47.90;;;;;;5034029;28;20284;-50
2023/12/25 03:24:15;;;;;;;1.00;0.50;;;14.50;47.80;;;;;;5034077;28;20201;-50
2023/12/25 03:26:42;;;;;;;0.80;0.25;;;14.60;47.60;;;;;;5033964;28;20186;-46
2023/12/25 03:29:08;;;;;;;1.00;0.40;;;14.60;47.70;;;;;;5025335;28;20201;-48
2023/12/25 03:31:34;;;;;;;0.90;0.40;;;14.50;48.00;;;;;;5033668;28;20190;-49
2023/12/25 03:34:00;;;;;;;0.90;0.50;;;14.50;47.90;;;;;;5033823;28;20229;-47
2023/12/25 03:36:26;;;;;;;1.00;0.73;;;14.50;48.00;;;;;;5033735;28;20180;-48
2023/12/25 03:38:51;;;;;;;0.90;0.40;;;14.40;48.50;;;;;;5033519;28;20216;-49
2023/12/25 03:41:17;;;;;;;0.90;0.50;;;14.50;48.10;;;;;;5031381;28;20178;-48
2023/12/25 03:43:43;;;;;;;0.90;0.30;;;14.50;47.80;;;;;;5027354;28;20208;-47
2023/12/25 03:46:09;;;;;;;1.00;0.70;;;14.50;48.60;;;;;;5033447;28;20424;-48
2023/12/25 03:48:34;;;;;;;0.93;0.43;;;14.70;47.50;;;;;;5028124;28;20205;-48
2023/12/25 03:51:00;;;;;;;0.93;0.65;;;14.60;47.40;;;;;;5029792;28;20181;-48
2023/12/25 03:53:27;;;;;;;0.90;0.47;;;14.50;47.60;;;;;;5033205;28;20166;-52
2023/12/25 03:55:53;;;;;;;1.15;0.50;;;14.50;48.10;;;;;;5033272;28;20436;-49
2023/12/25 03:58:19;;;;;;;0.90;0.40;;;14.50;48.20;;;;;;5033039;28;20671;-48
2023/12/25 04:00:44;;;;;;;0.90;0.40;;;14.60;48.00;;;;;;5033269;28;20181;-46
2023/12/25 04:03:11;;;;;;;1.50;0.70;;;14.60;48.10;;;;;;5033286;28;20413;-52
2023/12/25 04:05:37;;;;;;;0.98;0.50;;;14.60;48.30;;;;;;5032934;28;20220;-49
2023/12/25 04:08:03;;;;;;;0.90;0.40;;;14.60;48.30;;;;;;5032871;28;20233;-47
2023/12/25 04:10:29;;;;;;;1.00;0.50;;;14.60;48.20;;;;;;5032931;28;20699;-49
2023/12/25 04:12:54;;;;;;;0.90;0.40;;;14.40;48.70;;;;;;5032898;28;20274;-47
2023/12/25 04:15:20;;;;;;;0.90;0.40;;;14.20;49.00;;;;;;5032839;28;20277;-52
2023/12/25 04:17:46;;;;;;;1.00;0.60;;;14.20;49.10;;;;;;5033164;28;20182;-51
2023/12/25 04:20:12;;;;;;;1.20;0.87;;;14.30;49.20;;;;;;5032675;28;20273;-48
2023/12/25 04:22:37;;;;;;;0.90;0.30;;;14.50;48.30;;;;;;5032759;28;20177;-51
2023/12/25 04:25:04;;;;;;;0.90;0.40;;;14.50;48.20;;;;;;5032492;28;20806;-52
2023/12/25 04:27:29;;;;;;;0.90;0.30;;;14.40;48.70;;;;;;5032505;28;20178;-46
2023/12/25 04:29:55;;;;;;;0.90;0.40;;;14.20;49.10;;;;;;5032684;28;20878;-47
2023/12/25 04:32:21;;;;;;;0.90;0.40;;;14.30;48.90;;;;;;5032766;28;20170;-49
2023/12/25 04:34:47;;;;;;;0.90;0.30;;;14.40;48.10;;;;;;5032499;28;20563;-48
2023/12/25 04:37:12;;;;;;;0.90;0.40;;;14.40;48.00;;;;;;5032546;28;20240;-50
2023/12/25 04:39:41;;;;;;;0.87;0.30;;;14.40;47.80;;;;;;5032233;28;20175;-50
2023/12/25 04:42:06;;;;;;;0.90;0.40;;;14.50;48.00;;;;;;5032373;28;20274;-48
2023/12/25 04:44:32;;;;;;;0.90;0.40;;;14.60;47.50;;;;;;5032553;28;20234;-48
2023/12/25 04:46:58;;;;;;;0.90;0.30;;;14.70;47.80;;;;;;5032574;28;20186;-49
2023/12/25 04:49:24;;;;;;;0.90;0.30;;;14.70;46.80;;;;;;5032136;28;20241;-50
2023/12/25 04:51:49;;;;;;;0.90;0.40;;;14.80;46.20;;;;;;5032393;28;20825;-47
2023/12/25 04:54:15;;;;;;;1.10;0.87;;;14.60;46.70;;;;;;5031997;28;20686;-48
2023/12/25 04:56:41;;;;;;;0.90;0.40;;;14.60;46.70;;;;;;5032033;28;20247;-50
2023/12/25 04:59:06;;;;;;;0.87;0.40;;;14.50;46.80;;;;;;5032048;28;20189;-47
2023/12/25 05:01:32;;;;;;;0.90;0.30;;;14.50;47.00;;;;;;5032393;28;20177;-49
2023/12/25 05:03:58;;;;;;;1.00;0.50;;;14.60;46.70;;;;;;5031884;28;20626;-50
2023/12/25 05:06:23;;;;;;;0.90;0.40;;;14.60;46.30;;;;;;5032155;28;20189;-48
2023/12/25 05:08:49;;;;;;;0.90;0.30;;;14.60;46.50;;;;;;5031804;28;20552;-49
2023/12/25 05:11:15;;;;;;;1.00;0.43;;;14.60;46.30;;;;;;5031916;28;20578;-49
2023/12/25 05:13:41;;;;;;;0.80;0.30;;;14.70;46.20;;;;;;5032109;28;20420;-45
2023/12/25 05:16:07;;;;;;;1.00;0.70;;;14.60;46.40;;;;;;5032030;28;20775;-48
2023/12/25 05:18:32;;;;;;;0.90;0.40;;;14.50;46.60;;;;;;5031857;28;20217;-49
2023/12/25 05:20:59;;;;;;;0.90;0.40;;;14.50;46.70;;;;;;5031901;28;20182;-47
2023/12/25 05:23:25;;;;;;;0.82;0.30;;;14.60;46.40;;;;;;5031694;28;20182;-49
2023/12/25 05:25:50;;;;;;;0.90;0.40;;;14.50;46.80;;;;;;5031748;28;20205;-48
2023/12/25 05:28:16;;;;;;;1.00;0.60;;;14.60;46.40;;;;;;5031422;28;20802;-47
2023/12/25 05:30:43;;;;;;;0.90;0.40;;;14.60;46.10;;;;;;5031837;28;20178;-46
2023/12/25 05:33:08;;;;;;;0.85;0.28;;;14.60;46.30;;;;;;5031652;28;20640;-49
2023/12/25 05:35:34;;;;;;;0.90;0.40;;;14.70;45.80;;;;;;5031714;28;20194;-49
2023/12/25 05:38:00;;;;;;;0.87;0.30;;;14.70;45.80;;;;;;5031587;28;20185;-48
2023/12/25 05:40:26;;;;;;;0.90;0.40;;;14.80;45.60;;;;;;5031450;28;20934;-47
2023/12/25 05:42:52;;;;;;;0.90;0.40;;;14.80;45.50;;;;;;5031827;28;20192;-49
2023/12/25 05:45:19;;;;;;;0.80;0.30;;;14.70;45.60;;;;;;5031594;28;20201;-51
2023/12/25 05:47:45;;;;;;;0.80;0.30;;;14.60;46.00;;;;;;5031530;28;20261;-47
2023/12/25 05:50:11;;;;;;;2.90;0.83;;;14.70;45.80;;;;;;5031638;28;20277;-49
2023/12/25 05:52:36;;;;;;;0.90;0.50;;;14.80;45.60;;;;;;5031417;28;20409;-47
2023/12/25 05:55:02;;;;;;;0.90;0.50;;;14.60;46.20;;;;;;5031444;28;20248;-46
2023/12/25 05:57:28;;;;;;;0.90;0.40;;;14.40;46.70;;;;;;5031239;28;20506;-51
2023/12/25 05:59:54;;;;;;;0.80;0.30;;;14.40;47.00;;;;;;5031658;28;20482;-47
2023/12/25 06:02:20;;;;;;;0.90;0.47;;;14.30;47.50;;;;;;5031589;28;20981;-46
2023/12/25 06:04:45;;;;;;;0.80;0.27;;;14.50;47.10;;;;;;5031353;28;20453;-50
2023/12/25 06:07:11;;;;;;;0.90;0.47;;;14.40;47.00;;;;;;5031307;28;20551;-47
2023/12/25 06:09:37;;;;;;;0.90;0.40;;;14.60;46.70;;;;;;5031154;28;20281;-52
2023/12/25 06:12:04;;;;;;;0.90;0.40;;;14.50;46.70;;;;;;5033740;28;20178;-50
2023/12/25 06:14:30;;;;;;;0.85;0.30;;;14.50;46.70;;;;;;5035117;28;20190;-47
2023/12/25 06:16:55;;;;;;;0.80;0.30;;;14.50;46.80;;;;;;5035252;28;20185;-49
2023/12/25 06:19:21;;;;;;;0.90;0.40;;;14.50;46.70;;;;;;5035039;28;20544;-50
2023/12/25 06:21:47;;;;;;;0.90;0.30;;;14.50;46.60;;;;;;5035045;28;20186;-47
2023/12/25 06:24:13;;;;;;;0.90;0.30;;;14.60;46.30;;;;;;5034772;28;21122;-51
2023/12/25 06:26:39;;;;;;;0.88;0.35;;;14.60;46.30;;;;;;5034954;28;20421;-52
2023/12/25 06:29:05;;;;;;;0.80;0.30;;;14.60;46.00;;;;;;5017343;28;20210;-47
2023/12/25 06:31:31;;;;;;;1.00;0.40;;;14.60;45.90;;;;;;5034887;28;20170;-48
2023/12/25 06:33:56;;;;;;;1.00;0.70;;;14.70;46.20;;;;;;5034817;28;20253;-51
2023/12/25 06:36:22;;;;;;;1.30;0.60;;;14.70;46.10;;;;;;5034776;28;20535;-50
2023/12/25 06:38:48;;;;;;;0.90;0.37;;;14.70;46.00;;;;;;5034557;28;20582;-47
2023/12/25 06:41:14;;;;;;;0.90;0.33;;;14.70;45.90;;;;;;5034917;28;20702;-51
2023/12/25 06:43:39;;;;;;;0.80;0.30;;;14.70;45.90;;;;;;5034522;28;20262;-47
2023/12/25 06:46:05;;;;;;;0.90;0.50;;;14.80;45.60;;;;;;5034708;28;20182;-51
2023/12/25 06:48:31;;;;;;;0.90;0.30;;;14.80;45.40;;;;;;5034314;28;20201;-47
2023/12/25 06:50:57;;;;;;;1.00;0.70;;;14.70;45.60;;;;;;5034438;28;20265;-47
2023/12/25 06:53:23;;;;;;;0.90;0.40;;;14.90;45.80;;;;;;5034280;28;20257;-52
2023/12/25 06:55:48;;;;;;;0.80;0.30;;;14.80;45.60;;;;;;5034642;28;20265;-47
2023/12/25 06:58:14;;;;;;;0.90;0.30;;;14.70;45.30;;;;;;5034347;28;20647;-53
2023/12/25 07:00:40;;;;;;;1.00;0.70;;;14.80;45.60;;;;;;5034355;28;20170;-52
2023/12/25 07:03:06;;;;;;;1.50;0.97;;;14.80;45.60;;;;;;5034356;28;20177;-47
2023/12/25 07:05:33;;;;;;;0.95;0.50;;;14.80;45.60;;;;;;5034066;28;20710;-52
2023/12/25 07:07:59;;;;;;;0.90;0.43;;;15.00;45.10;;;;;;5033951;28;20610;-48
2023/12/25 07:10:24;;;;;;;0.90;0.40;;;15.10;44.70;;;;;;5034185;28;20220;-48
2023/12/25 07:12:50;;;;;;;0.90;0.30;;;14.90;45.20;;;;;;5034090;28;20174;-50
2023/12/25 07:15:16;;;;;;;0.90;0.40;;;14.90;45.40;;;;;;5033908;28;20198;-51
2023/12/25 07:17:42;;;;;;;0.90;0.30;;;14.90;45.70;;;;;;5033962;28;20174;-47
2023/12/25 07:20:08;;;;;;;0.90;0.40;;;15.10;44.70;;;;;;5033930;28;20895;-49
2023/12/25 07:22:34;;;;;;;0.90;0.40;;;15.10;44.70;;;;;;5033883;28;20166;-51
2023/12/25 07:25:06;;;;;;;0.90;0.40;;;15.00;45.20;;;;;;5034107;28;20204;-49
2023/12/25 07:27:32;;;;;;;0.90;0.40;;;15.00;45.40;;;;;;5033939;28;20174;-46
2023/12/25 07:29:58;;;;;;;0.90;0.30;;;15.10;45.20;;;;;;5033922;28;20194;-53
2023/12/25 07:32:24;;;;;;;0.90;0.37;;;15.00;45.30;;;;;;5033750;28;20224;-52
2023/12/25 07:34:50;;;;;;;0.93;0.50;;;15.00;45.10;;;;;;5033676;28;20762;-46
2023/12/25 07:37:16;;;;;;;3.65;0.50;;;15.00;45.10;;;;;;5033447;28;20413;-51
2023/12/25 07:39:42;;;;;;;0.90;0.40;;;15.00;45.20;;;;;;5033526;28;20221;-46
2023/12/25 07:42:08;;;;;;;0.90;0.30;;;15.10;45.10;;;;;;5033424;28;20182;-50
2023/12/25 07:44:41;;;;;;;0.90;0.30;;;15.10;45.10;;;;;;5033572;28;20201;-52
2023/12/25 07:47:07;;;;;;;1.30;0.90;;;15.20;44.70;;;;;;5025181;28;20648;-47
2023/12/25 07:49:33;;;;;;;0.90;0.30;;;15.10;45.40;;;;;;5033214;28;20216;-48
2023/12/25 07:51:59;;;;;;;0.90;0.40;;;15.10;45.80;;;;;;5033356;28;20195;-53
2023/12/25 07:54:24;;;;;;;0.80;0.20;;;15.00;45.90;;;;;;5033464;28;20228;-47
2023/12/25 07:56:50;;;;;;;0.90;0.30;;;15.00;45.50;;;;;;5033455;28;20181;-47
2023/12/25 07:59:20;;;;;;;0.97;0.27;;;15.00;45.60;;;;;;5033031;28;20700;-51
2023/12/25 08:01:45;;;;;;;0.90;0.20;;;15.10;45.40;;;;;;5033184;28;20178;-48
2023/12/25 08:04:11;;;;;;;0.80;0.20;;;15.10;45.30;;;;;;5033561;28;20222;-46
2023/12/25 08:06:37;;;;;;;0.80;0.30;;;15.20;45.20;;;;;;5034260;28;20539;-47
2023/12/25 08:09:03;;;;;;;0.90;0.30;;;15.30;44.70;;;;;;5033957;28;20213;-53
2023/12/25 08:11:29;;;;;;;0.80;0.20;;;15.30;44.50;;;;;;5034012;28;20683;-47
2023/12/25 08:13:54;;;;;;;0.90;0.40;;;15.40;44.30;;;;;;5033078;28;20370;-53
2023/12/25 08:16:20;;;;;;;0.90;0.40;;;15.30;44.70;;;;;;5032920;28;20189;-48
2023/12/25 08:18:46;;;;;;;0.90;0.30;;;15.40;44.50;;;;;;5032620;28;20647;-50
2023/12/25 08:21:12;;;;;;;0.90;0.40;;;15.40;44.40;;;;;;5032783;28;20186;-52
2023/12/25 08:23:40;;;;;;;0.90;0.40;;;15.40;44.20;;;;;;5028687;28;20178;-46
2023/12/25 08:26:06;;;;;;;0.98;0.40;;;15.40;44.40;;;;;;5029211;28;20178;-53
2023/12/25 08:28:32;;;;;;;0.85;0.30;;;15.40;43.90;;;;;;5032449;28;20228;-47
2023/12/25 08:30:57;;;;;;;1.00;0.50;;;15.40;44.20;;;;;;5032604;28;20257;-46
2023/12/25 08:33:23;;;;;;;0.90;0.33;;;15.40;44.00;;;;;;5031977;28;20187;-53
2023/12/25 08:35:50;;;;;;;1.57;0.37;;;15.40;44.20;;;;;;5032357;28;20178;-47
2023/12/25 08:38:16;;;;;;;0.90;0.40;;;15.50;44.20;;;;;;5032391;28;20232;-49
2023/12/25 08:40:41;;;;;;;0.80;0.30;;;15.40;43.90;;;;;;5032639;28;20186;-52
2023/12/25 08:43:07;;;;;;;0.90;0.40;;;15.40;44.10;;;;;;5032407;28;20193;-46
2023/12/25 08:45:33;;;;;;;0.90;0.20;;;15.40;43.90;;;;;;5032348;28;20277;-47
2023/12/25 08:47:58;;;;;;;1.00;0.50;;;15.40;43.90;;;;;;5032032;28;20230;-46
2023/12/25 08:50:24;;;;;;;0.90;0.35;;;15.40;44.00;;;;;;5032507;28;20182;-46
2023/12/25 08:52:50;;;;;;;0.90;0.30;;;15.40;43.50;;;;;;5032631;28;20692;-54
2023/12/25 08:55:16;;;;;;;0.90;0.47;;;15.40;43.90;;;;;;5032100;28;20197;-47
2023/12/25 08:57:41;;;;;;;0.80;0.20;;;15.50;43.80;;;;;;5032081;28;20295;-53
2023/12/25 09:00:10;;;;;;;1.00;0.30;;;15.50;43.30;;;;;;5032162;28;20667;-52
2023/12/25 09:02:36;;;;;;;0.90;0.40;;;15.50;43.30;;;;;;5031909;28;20656;-47
2023/12/25 09:05:02;;;;;;;2.60;0.40;;;15.60;43.30;;;;;;5031880;28;20217;-46
2023/12/25 09:07:27;;;;;;;0.80;0.20;;;15.50;43.60;;;;;;5032101;28;20360;-53
2023/12/25 09:09:53;;;;;;;0.90;0.33;;;15.50;43.40;;;;;;5031991;28;20465;-47
2023/12/25 09:12:19;;;;;;;1.00;0.50;;;15.50;43.00;;;;;;5031852;28;20186;-53
2023/12/25 09:14:46;;;;;;;1.23;0.77;;;15.50;43.30;;;;;;5031938;28;20471;-52
2023/12/25 09:17:12;;;;;;;1.00;0.63;;;15.70;43.20;;;;;;5031717;28;20182;-48
2023/12/25 09:19:37;;;;;;;1.10;0.68;;;15.90;43.00;;;;;;5031780;28;20906;-48
2023/12/25 09:22:03;;;;;;;1.10;0.73;;;16.00;42.30;;;;;;5031983;28;20185;-51
2023/12/25 09:24:30;;;;;;;0.90;0.40;;;16.10;42.70;;;;;;5031749;28;20217;-47
2023/12/25 09:26:55;;;;;;;1.02;0.50;;;16.20;41.90;;;;;;5031864;28;20530;-47
2023/12/25 09:29:21;;;;;;;1.00;0.50;;;16.00;42.50;;;;;;5031507;28;20211;-52
2023/12/25 09:31:47;;;;;;;0.90;0.20;;;16.20;41.90;;;;;;5054728;22;20251;-47
2023/12/25 09:34:13;;;;;;;0.80;0.30;;;16.30;41.80;;;;;;5031622;28;20265;-56
2023/12/25 09:36:38;;;;;;;1.10;0.43;;;16.50;41.60;;;;;;5031622;28;20174;-57
2023/12/25 09:39:04;;;;;;;0.90;0.33;;;16.50;41.10;;;;;;5031804;28;20551;-50
2023/12/25 09:41:32;;;;;;;1.07;0.60;;;16.40;41.60;;;;;;5031704;28;20679;-51
2023/12/25 09:44:02;;;;;;;1.10;0.68;;;16.70;40.80;;;;;;5031690;28;20178;-55
2023/12/25 09:46:29;;;;;;;0.93;0.35;;;16.60;40.70;;;;;;5033226;28;20182;-50
2023/12/25 09:48:55;;;;;;;0.90;0.30;;;16.50;41.30;;;;;;5035616;28;20697;-52
2023/12/25 09:51:22;;;;;;;0.90;0.40;;;16.50;41.00;;;;;;5035637;28;20267;-49
2023/12/25 09:53:48;;;;;;;0.90;0.30;;;16.60;41.40;;;;;;5035620;28;20170;-48
2023/12/25 09:56:16;;;;;;;0.90;0.37;;;16.70;41.60;;;;;;5035486;28;20239;-55
2023/12/25 09:58:44;;;;;;;0.90;0.40;;;16.70;41.50;;;;;;5035362;28;20413;-55
2023/12/25 10:01:13;;;;;;;0.90;0.40;;;16.60;42.00;;;;;;5035390;28;20248;-50
2023/12/25 10:03:43;;;;;;;0.90;0.35;;;16.20;43.50;;;;;;5035597;28;20619;-51
2023/12/25 10:06:09;;;;;;;0.85;0.32;;;16.00;44.30;;;;;;5035243;28;20209;-50
2023/12/25 10:08:39;;;;;;;0.90;0.30;;;15.80;45.20;;;;;;5035288;28;20197;-50
2023/12/25 10:11:08;;;;;;;0.90;0.40;;;15.80;46.40;;;;;;5035125;28;20201;-54
2023/12/25 10:13:34;;;;;;;0.90;0.38;;;15.70;48.00;;;;;;5035315;28;20178;-50
2023/12/25 10:16:02;;;;;;;3.47;0.83;;;15.50;49.10;;;;;;5035175;28;20606;-49
2023/12/25 10:18:31;;;;;;;0.90;0.30;;;15.40;49.60;;;;;;5034884;28;20560;-51
2023/12/25 10:20:59;;;;;;;0.90;0.30;;;15.40;49.60;;;;;;5035020;28;20322;-53
2023/12/25 10:23:32;;;;;;;0.90;0.32;;;15.40;49.70;;;;;;5035168;28;20188;-52
2023/12/25 10:25:59;;;;;;;0.90;0.40;;;15.50;50.20;;;;;;5035055;28;20210;-52
2023/12/25 10:28:27;;;;;;;0.90;0.50;;;15.40;50.40;;;;;;5034737;28;20281;-50
2023/12/25 10:30:59;;;;;;;0.90;0.40;;;15.40;50.70;;;;;;5034678;28;20571;-49
2023/12/25 10:33:26;;;;;;;0.90;0.50;;;15.40;50.30;;;;;;5035028;28;20183;-54
2023/12/25 10:36:23;;;;;;;1.00;0.63;;;15.30;50.30;;;;;;5034820;28;20513;-50
2023/12/25 10:38:49;;;;;;;1.55;0.43;;;15.30;50.40;;;;;;5022740;28;20560;-53
2023/12/25 10:41:22;;;;;;;0.97;0.40;;;15.20;50.60;;;;;;5034620;28;20201;-53
2023/12/25 10:43:56;;;;;;;1.00;0.55;;;15.20;50.20;;;;;;5034593;28;20236;-49
2023/12/25 10:46:24;;;;;;;1.10;0.40;;;15.40;49.80;;;;;;5017052;28;20192;-50
2023/12/25 10:48:53;;;;;;;1.00;0.60;;;15.50;49.60;;;;;;5034393;28;20204;-54
2023/12/25 10:51:46;;;;;;;1.83;0.30;;;15.50;49.30;;;;;;5034684;28;20841;-50
2023/12/25 10:54:12;;;;;;;0.90;0.30;;;15.40;48.80;;;;;;5034447;28;20236;-52
2023/12/25 10:56:44;;;;;;;1.10;0.50;;;15.50;49.10;;;;;;5034169;28;20189;-55
2023/12/25 10:59:20;;;;;;;0.88;0.38;;;15.60;48.90;;;;;;5034228;28;20600;-55
2023/12/25 11:01:48;;;;;;;1.45;0.68;;;15.70;48.60;;;;;;5034337;28;20236;-50
2023/12/25 11:04:17;;;;;;;1.45;0.90;;;15.80;48.40;;;;;;5034250;28;20956;-52
2023/12/25 11:06:47;;;;;;;0.88;0.35;;;15.80;48.00;;;;;;5034260;28;20178;-57
2023/12/25 11:09:22;;;;;;;0.90;0.40;;;15.80;47.60;;;;;;5034031;28;20578;-55
2023/12/25 11:11:48;;;;;;;1.02;0.57;;;15.80;47.50;;;;;;5034252;28;20206;-51
2023/12/25 11:14:15;;;;;;;0.90;0.32;;;15.90;47.60;;;;;;5033943;28;20178;-53
2023/12/25 11:16:41;;;;;;;1.00;0.60;;;15.80;47.00;;;;;;5033979;28;20171;-49
2023/12/25 11:19:07;;;;;;;0.90;0.20;;;15.80;47.50;;;;;;5033918;28;20965;-48
2023/12/25 11:21:34;;;;;;;0.90;0.50;;;15.80;47.30;;;;;;5033898;28;20217;-57
2023/12/25 11:24:00;;;;;;;0.95;0.52;;;15.80;47.70;;;;;;5019231;28;20248;-53
2023/12/25 11:26:30;;;;;;;0.93;0.50;;;15.70;47.90;;;;;;5014272;28;20174;-50
2023/12/25 11:29:06;;;;;;;0.90;0.30;;;15.70;48.40;;;;;;5014086;28;20198;-59
2023/12/25 11:31:46;;;;;;;1.10;0.63;;;15.60;48.30;;;;;;5014093;28;20336;-53
2023/12/25 11:34:19;;;;;;;0.90;0.50;;;15.60;48.50;;;;;;5014276;28;20170;-55
2023/12/25 11:36:47;;;;;;;1.27;0.63;;;15.60;48.50;;;;;;5014242;28;20582;-57
2023/12/25 11:39:13;;;;;;;0.90;0.40;;;15.60;48.60;;;;;;5014006;28;20181;-52
2023/12/25 11:41:38;;;;;;;1.10;0.63;;;15.60;48.30;;;;;;5013979;28;20195;-52
2023/12/25 11:44:08;;;;;;;1.37;0.77;;;15.70;48.20;;;;;;5013936;28;20269;-59
2023/12/25 11:46:43;;;;;;;0.90;0.40;;;15.80;47.90;;;;;;5013952;28;20171;-52
2023/12/25 11:49:09;;;;;;;0.90;0.38;;;15.80;47.60;;;;;;4996363;28;20229;-54
2023/12/25 11:51:46;;;;;;;0.90;0.40;;;15.80;47.40;;;;;;5013953;28;20234;-59
2023/12/25 11:54:12;;;;;;;0.90;0.47;;;15.80;46.60;;;;;;5013846;28;20210;-52
2023/12/25 11:56:38;;;;;;;0.90;0.40;;;15.60;47.00;;;;;;5013986;28;20206;-57
2023/12/25 11:59:05;;;;;;;0.90;0.40;;;15.70;46.70;;;;;;5013523;28;20659;-54
2023/12/25 12:01:31;;;;;;;1.17;0.98;;;15.70;47.30;;;;;;5013620;28;20285;-51
2023/12/25 12:03:57;;;;;;;0.90;0.40;;;15.60;46.70;;;;;;5013646;28;20413;-58
2023/12/25 12:06:23;;;;;;;1.00;0.50;;;15.60;46.10;;;;;;5013655;28;20185;-60
2023/12/25 12:08:49;;;;;;;0.90;0.30;;;15.60;46.90;;;;;;5012411;28;20623;-52
2023/12/25 12:11:15;;;;;;;0.90;0.43;;;15.60;47.60;;;;;;5013605;28;21041;-58
2023/12/25 12:13:42;;;;;;;0.90;0.47;;;15.60;47.60;;;;;;5013462;28;20198;-53
2023/12/25 12:16:08;;;;;;;0.90;0.43;;;15.50;48.20;;;;;;5013439;28;20201;-55
2023/12/25 12:18:35;;;;;;;1.20;0.90;;;15.50;48.50;;;;;;5013281;28;20597;-51
2023/12/25 12:21:00;;;;;;;1.00;0.55;;;15.40;49.10;;;;;;5013219;28;20432;-51
2023/12/25 12:23:33;;;;;;;0.90;0.50;;;15.40;49.00;;;;;;5013279;28;20186;-55
2023/12/25 12:26:00;;;;;;;0.90;0.40;;;15.40;48.80;;;;;;5013358;28;20459;-53
2023/12/25 12:28:29;;;;;;;1.00;0.80;;;15.50;49.20;;;;;;5013109;28;20198;-52
2023/12/25 12:30:56;;;;;;;0.90;0.40;;;15.50;49.30;;;;;;5012974;28;20360;-55
2023/12/25 12:33:22;;;;;;;0.90;0.30;;;15.50;49.20;;;;;;5013192;28;20167;-51
2023/12/25 12:35:49;;;;;;;1.00;0.70;;;15.50;50.70;;;;;;5013120;28;20179;-50
2023/12/25 12:38:15;;;;;;;0.90;0.40;;;15.50;50.30;;;;;;5012985;28;20174;-54
2023/12/25 12:40:41;;;;;;;1.00;0.63;;;15.50;50.40;;;;;;5013119;28;20194;-58
2023/12/25 12:43:06;;;;;;;0.90;0.40;;;15.30;51.30;;;;;;5013124;28;20174;-51
2023/12/25 12:45:32;;;;;;;0.90;0.40;;;15.30;51.10;;;;;;5012994;28;20228;-47